sensor_id;sensor_type;location;lat;lon;timestamp;pressure;altitude;pressure_sealevel;temperature;humidity
56671;BME280;42545;50.054;8.306;2023-05-02T00:00:48;100073.84;;;12.18;71.64
56671;BME280;42545;50.054;8.306;2023-05-02T00:03:14;100072.03;;;12.14;71.78
56671;BME280;42545;50.054;8.306;2023-05-02T00:05:42;100074.63;;;12.09;72.55
56671;BME280;42545;50.054;8.306;2023-05-02T00:08:10;100067.53;;;12.03;72.58
56671;BME280;42545;50.054;8.306;2023-05-02T00:10:39;100070.06;;;11.97;73.11
56671;BME280;42545;50.054;8.306;2023-05-02T00:13:05;100076.22;;;11.93;73.09
56671;BME280;42545;50.054;8.306;2023-05-02T00:15:32;100064.66;;;11.88;73.33
56671;BME280;42545;50.054;8.306;2023-05-02T00:17:59;100062.84;;;11.84;73.63
56671;BME280;42545;50.054;8.306;2023-05-02T00:20:25;100064.56;;;11.79;74.00
56671;BME280;42545;50.054;8.306;2023-05-02T00:22:52;100069.81;;;11.74;74.50
56671;BME280;42545;50.054;8.306;2023-05-02T00:25:18;100072.34;;;11.65;74.94
56671;BME280;42545;50.054;8.306;2023-05-02T00:27:46;100077.50;;;11.56;75.14
56671;BME280;42545;50.054;8.306;2023-05-02T00:30:15;100080.03;;;11.48;75.73
56671;BME280;42545;50.054;8.306;2023-05-02T00:32:42;100077.28;;;11.40;76.17
56671;BME280;42545;50.054;8.306;2023-05-02T00:35:09;100080.78;;;11.36;76.38
56671;BME280;42545;50.054;8.306;2023-05-02T00:37:36;100085.09;;;11.31;76.54
56671;BME280;42545;50.054;8.306;2023-05-02T00:40:03;100083.28;;;11.27;77.04
56671;BME280;42545;50.054;8.306;2023-05-02T00:42:32;100077.94;;;11.24;77.28
56671;BME280;42545;50.054;8.306;2023-05-02T00:45:02;100085.84;;;11.22;77.74
56671;BME280;42545;50.054;8.306;2023-05-02T00:47:29;100084.13;;;11.23;77.85
56671;BME280;42545;50.054;8.306;2023-05-02T00:49:55;100078.84;;;11.23;78.20
56671;BME280;42545;50.054;8.306;2023-05-02T00:52:23;100084.16;;;11.27;78.28
56671;BME280;42545;50.054;8.306;2023-05-02T00:54:50;100085.03;;;11.28;77.94
56671;BME280;42545;50.054;8.306;2023-05-02T00:57:17;100082.44;;;11.29;78.09
56671;BME280;42545;50.054;8.306;2023-05-02T00:59:44;100084.19;;;11.29;78.08
56671;BME280;42545;50.054;8.306;2023-05-02T01:02:24;100087.72;;;11.29;78.08
56671;BME280;42545;50.054;8.306;2023-05-02T01:04:59;100085.94;;;11.27;78.28
56671;BME280;42545;50.054;8.306;2023-05-02T01:07:50;100085.06;;;11.26;78.61
56671;BME280;42545;50.054;8.306;2023-05-02T01:10:24;100086.75;;;11.24;78.56
56671;BME280;42545;50.054;8.306;2023-05-02T01:12:59;100088.47;;;11.21;78.65
56671;BME280;42545;50.054;8.306;2023-05-02T01:15:29;100086.72;;;11.20;79.01
56671;BME280;42545;50.054;8.306;2023-05-02T01:18:00;100096.38;;;11.18;78.87
56671;BME280;42545;50.054;8.306;2023-05-02T01:20:29;100091.91;;;11.13;79.16
56671;BME280;42545;50.054;8.306;2023-05-02T01:23:03;100092.78;;;11.14;79.67
56671;BME280;42545;50.054;8.306;2023-05-02T01:25:40;100098.06;;;11.14;79.65
56671;BME280;42545;50.054;8.306;2023-05-02T01:28:18;100099.03;;;11.19;80.00
56671;BME280;42545;50.054;8.306;2023-05-02T01:30:51;100101.69;;;11.19;80.12
56671;BME280;42545;50.054;8.306;2023-05-02T01:33:21;100107.06;;;11.27;79.85
56671;BME280;42545;50.054;8.306;2023-05-02T01:35:51;100102.72;;;11.30;79.89
56671;BME280;42545;50.054;8.306;2023-05-02T01:38:20;100108.94;;;11.34;79.84
56671;BME280;42545;50.054;8.306;2023-05-02T01:40:50;100108.09;;;11.38;79.95
56671;BME280;42545;50.054;8.306;2023-05-02T01:43:19;100107.25;;;11.41;80.04
56671;BME280;42545;50.054;8.306;2023-05-02T01:45:49;100115.19;;;11.42;80.17
56671;BME280;42545;50.054;8.306;2023-05-02T01:48:18;100109.97;;;11.45;80.00
56671;BME280;42545;50.054;8.306;2023-05-02T01:50:46;100110.84;;;11.46;80.17
56671;BME280;42545;50.054;8.306;2023-05-02T01:53:15;100117.03;;;11.46;80.28
56671;BME280;42545;50.054;8.306;2023-05-02T01:55:43;100119.69;;;11.46;80.58
56671;BME280;42545;50.054;8.306;2023-05-02T01:58:13;100122.31;;;11.46;80.77
56671;BME280;42545;50.054;8.306;2023-05-02T02:00:41;100111.69;;;11.43;80.68
56671;BME280;42545;50.054;8.306;2023-05-02T02:03:12;100120.53;;;11.45;80.72
56671;BME280;42545;50.054;8.306;2023-05-02T02:05:40;100121.38;;;11.44;80.82
56671;BME280;42545;50.054;8.306;2023-05-02T02:08:07;100124.03;;;11.43;81.02
56671;BME280;42545;50.054;8.306;2023-05-02T02:10:37;100128.34;;;11.38;81.24
56671;BME280;42545;50.054;8.306;2023-05-02T02:13:12;100128.28;;;11.33;81.26
56671;BME280;42545;50.054;8.306;2023-05-02T02:15:45;100124.66;;;11.28;81.63
56671;BME280;42545;50.054;8.306;2023-05-02T02:18:19;100127.19;;;11.17;81.76
56671;BME280;42545;50.054;8.306;2023-05-02T02:20:49;100142.13;;;11.16;82.49
56671;BME280;42545;50.054;8.306;2023-05-02T02:23:17;100140.28;;;11.11;82.74
56671;BME280;42545;50.054;8.306;2023-05-02T02:25:45;100155.16;;;11.06;83.11
56671;BME280;42545;50.054;8.306;2023-05-02T02:28:12;100149.81;;;11.01;83.53
56671;BME280;42545;50.054;8.306;2023-05-02T02:30:38;100155.00;;;10.96;84.01
56671;BME280;42545;50.054;8.306;2023-05-02T02:33:05;100153.16;;;10.91;84.19
56671;BME280;42545;50.054;8.306;2023-05-02T02:35:37;100151.38;;;10.88;84.66
56671;BME280;42545;50.054;8.306;2023-05-02T02:38:11;100152.19;;;10.84;84.83
56671;BME280;42545;50.054;8.306;2023-05-02T02:40:43;100154.75;;;10.81;85.09
56671;BME280;42545;50.054;8.306;2023-05-02T02:43:19;100152.03;;;10.76;85.32
56671;BME280;42545;50.054;8.306;2023-05-02T02:45:56;100151.06;;;10.71;85.99
56671;BME280;42545;50.054;8.306;2023-05-02T02:48:30;100156.28;;;10.67;85.94
56671;BME280;42545;50.054;8.306;2023-05-02T02:51:06;100164.09;;;10.62;86.41
56671;BME280;42545;50.054;8.306;2023-05-02T02:53:46;100168.41;;;10.58;86.54
56671;BME280;42545;50.054;8.306;2023-05-02T02:56:21;100171.00;;;10.54;87.36
56671;BME280;42545;50.054;8.306;2023-05-02T02:58:55;100167.44;;;10.52;87.71
56671;BME280;42545;50.054;8.306;2023-05-02T03:01:24;100170.03;;;10.50;87.81
56671;BME280;42545;50.054;8.306;2023-05-02T03:03:53;100178.81;;;10.48;87.95
56671;BME280;42545;50.054;8.306;2023-05-02T03:06:22;100179.59;;;10.44;88.17
56671;BME280;42545;50.054;8.306;2023-05-02T03:08:49;100187.47;;;10.41;88.50
56671;BME280;42545;50.054;8.306;2023-05-02T03:11:16;100192.66;;;10.37;88.90
56671;BME280;42545;50.054;8.306;2023-05-02T03:13:42;100202.28;;;10.34;89.08
56671;BME280;42545;50.054;8.306;2023-05-02T03:16:31;100203.88;;;10.29;89.75
56671;BME280;42545;50.054;8.306;2023-05-02T03:18:59;100213.47;;;10.25;89.75
56671;BME280;42545;50.054;8.306;2023-05-02T03:21:27;100213.41;;;10.22;90.08
56671;BME280;42545;50.054;8.306;2023-05-02T03:23:56;100211.56;;;10.18;90.63
56671;BME280;42545;50.054;8.306;2023-05-02T03:26:22;100210.66;;;10.16;91.00
56671;BME280;42545;50.054;8.306;2023-05-02T03:28:49;100215.91;;;10.14;91.20
56671;BME280;42545;50.054;8.306;2023-05-02T03:31:16;100217.66;;;10.14;91.44
56671;BME280;42545;50.054;8.306;2023-05-02T03:33:43;100225.53;;;10.12;91.64
56671;BME280;42545;50.054;8.306;2023-05-02T03:36:10;100225.56;;;10.14;92.01
56671;BME280;42545;50.054;8.306;2023-05-02T03:38:38;100236.94;;;10.13;91.91
56671;BME280;42545;50.054;8.306;2023-05-02T03:41:05;100236.09;;;10.14;92.12
56671;BME280;42545;50.054;8.306;2023-05-02T03:43:32;100231.69;;;10.13;92.27
56671;BME280;42545;50.054;8.306;2023-05-02T03:46:03;100226.44;;;10.14;92.42
56671;BME280;42545;50.054;8.306;2023-05-02T03:48:30;100231.69;;;10.13;92.14
56671;BME280;42545;50.054;8.306;2023-05-02T03:50:57;100235.19;;;10.12;92.26
56671;BME280;42545;50.054;8.306;2023-05-02T03:53:25;100237.84;;;10.12;92.09
56671;BME280;42545;50.054;8.306;2023-05-02T03:55:55;100235.19;;;10.12;92.24
56671;BME280;42545;50.054;8.306;2023-05-02T03:58:22;100236.91;;;10.10;92.41
56671;BME280;42545;50.054;8.306;2023-05-02T04:00:49;100243.00;;;10.07;92.36
56671;BME280;42545;50.054;8.306;2023-05-02T04:03:17;100255.25;;;10.05;92.64
56671;BME280;42545;50.054;8.306;2023-05-02T04:05:43;100250.81;;;10.03;92.88
56671;BME280;42545;50.054;8.306;2023-05-02T04:08:10;100263.13;;;10.04;93.23
56671;BME280;42545;50.054;8.306;2023-05-02T04:10:37;100256.97;;;10.03;93.07
56671;BME280;42545;50.054;8.306;2023-05-02T04:13:09;100264.09;;;10.07;93.18
56671;BME280;42545;50.054;8.306;2023-05-02T04:15:36;100261.56;;;10.12;93.08
56671;BME280;42545;50.054;8.306;2023-05-02T04:18:03;100265.19;;;10.17;92.74
56671;BME280;42545;50.054;8.306;2023-05-02T04:20:29;100267.00;;;10.19;92.39
56671;BME280;42545;50.054;8.306;2023-05-02T04:22:56;100279.34;;;10.22;92.37
56671;BME280;42545;50.054;8.306;2023-05-02T04:25:23;100267.03;;;10.21;92.41
56671;BME280;42545;50.054;8.306;2023-05-02T04:27:49;100279.44;;;10.27;92.22
56671;BME280;42545;50.054;8.306;2023-05-02T04:30:18;100281.25;;;10.29;92.26
56671;BME280;42545;50.054;8.306;2023-05-02T04:32:45;100276.88;;;10.30;92.43
56671;BME280;42545;50.054;8.306;2023-05-02T04:35:13;100282.09;;;10.27;92.31
56671;BME280;42545;50.054;8.306;2023-05-02T04:37:41;100274.09;;;10.24;92.09
56671;BME280;42545;50.054;8.306;2023-05-02T04:40:08;100294.59;;;10.34;92.01
56671;BME280;42545;50.054;8.306;2023-05-02T04:42:35;100297.25;;;10.35;91.98
56671;BME280;42545;50.054;8.306;2023-05-02T04:45:02;100307.84;;;10.38;92.06
56671;BME280;42545;50.054;8.306;2023-05-02T04:47:30;100307.94;;;10.42;92.15
56671;BME280;42545;50.054;8.306;2023-05-02T04:49:57;100315.03;;;10.44;92.00
56671;BME280;42545;50.054;8.306;2023-05-02T04:52:23;100313.31;;;10.46;91.92
56671;BME280;42545;50.054;8.306;2023-05-02T04:54:50;100316.00;;;10.49;91.72
56671;BME280;42545;50.054;8.306;2023-05-02T04:57:17;100323.09;;;10.52;91.14
56671;BME280;42545;50.054;8.306;2023-05-02T04:59:44;100324.03;;;10.54;91.09
56671;BME280;42545;50.054;8.306;2023-05-02T05:02:10;100322.38;;;10.59;91.03
56671;BME280;42545;50.054;8.306;2023-05-02T05:04:39;100335.59;;;10.61;89.86
56671;BME280;42545;50.054;8.306;2023-05-02T05:07:05;100325.09;;;10.64;89.32
56671;BME280;42545;50.054;8.306;2023-05-02T05:09:32;100333.13;;;10.68;89.42
56671;BME280;42545;50.054;8.306;2023-05-02T05:11:59;100329.63;;;10.71;89.01
56671;BME280;42545;50.054;8.306;2023-05-02T05:14:26;100332.34;;;10.74;88.25
56671;BME280;42545;50.054;8.306;2023-05-02T05:16:52;100349.09;;;10.76;88.07
56671;BME280;42545;50.054;8.306;2023-05-02T05:19:19;100341.25;;;10.79;88.12
56671;BME280;42545;50.054;8.306;2023-05-02T05:21:47;100345.72;;;10.83;88.19
56671;BME280;42545;50.054;8.306;2023-05-02T05:24:14;100349.28;;;10.85;87.85
56671;BME280;42545;50.054;8.306;2023-05-02T05:26:41;100352.84;;;10.87;87.83
56671;BME280;42545;50.054;8.306;2023-05-02T05:29:08;100358.16;;;10.89;87.50
56671;BME280;42545;50.054;8.306;2023-05-02T05:31:36;100359.06;;;10.91;87.12
56671;BME280;42545;50.054;8.306;2023-05-02T05:34:03;100357.31;;;10.91;86.81
56671;BME280;42545;50.054;8.306;2023-05-02T05:36:32;100364.31;;;10.89;86.64
56671;BME280;42545;50.054;8.306;2023-05-02T05:39:00;100366.09;;;10.90;86.72
56671;BME280;42545;50.054;8.306;2023-05-02T05:41:27;100367.03;;;10.92;87.08
56671;BME280;42545;50.054;8.306;2023-05-02T05:43:54;100380.28;;;10.95;86.92
56671;BME280;42545;50.054;8.306;2023-05-02T05:46:21;100382.97;;;10.97;86.97
56671;BME280;42545;50.054;8.306;2023-05-02T05:48:50;100387.38;;;10.98;86.91
56671;BME280;42545;50.054;8.306;2023-05-02T05:51:17;100383.03;;;11.02;86.88
56671;BME280;42545;50.054;8.306;2023-05-02T05:53:44;100391.03;;;11.05;86.88
56671;BME280;42545;50.054;8.306;2023-05-02T05:56:12;100393.72;;;11.08;86.67
56671;BME280;42545;50.054;8.306;2023-05-02T05:58:39;100388.53;;;11.12;87.00
56671;BME280;42545;50.054;8.306;2023-05-02T06:01:09;100395.66;;;11.16;86.52
56671;BME280;42545;50.054;8.306;2023-05-02T06:03:38;100401.84;;;11.19;86.89
56671;BME280;42545;50.054;8.306;2023-05-02T06:06:05;100402.75;;;11.19;85.94
56671;BME280;42545;50.054;8.306;2023-05-02T06:08:31;100405.38;;;11.18;86.04
56671;BME280;42545;50.054;8.306;2023-05-02T06:10:58;100408.06;;;11.19;85.74
56671;BME280;42545;50.054;8.306;2023-05-02T06:13:32;100409.81;;;11.20;85.54
56671;BME280;42545;50.054;8.306;2023-05-02T06:16:00;100410.69;;;11.21;85.41
56671;BME280;42545;50.054;8.306;2023-05-02T06:18:27;100417.88;;;11.26;86.25
56671;BME280;42545;50.054;8.306;2023-05-02T06:20:54;100429.47;;;11.34;86.10
56671;BME280;42545;50.054;8.306;2023-05-02T06:23:21;100423.34;;;11.37;85.37
56671;BME280;42545;50.054;8.306;2023-05-02T06:25:49;100426.09;;;11.42;85.35
56671;BME280;42545;50.054;8.306;2023-05-02T06:28:15;100431.47;;;11.48;85.08
56671;BME280;42545;50.054;8.306;2023-05-02T06:30:46;100429.78;;;11.51;84.40
56671;BME280;42545;50.054;8.306;2023-05-02T06:33:12;100429.00;;;11.57;83.97
56671;BME280;42545;50.054;8.306;2023-05-02T06:35:41;100433.59;;;11.67;83.57
56671;BME280;42545;50.054;8.306;2023-05-02T06:38:08;100429.41;;;11.80;83.99
56671;BME280;42545;50.054;8.306;2023-05-02T06:40:34;100425.19;;;11.90;82.60
56671;BME280;42545;50.054;8.306;2023-05-02T06:43:01;100440.44;;;12.06;82.60
56671;BME280;42545;50.054;8.306;2023-05-02T06:45:29;100446.81;;;12.16;81.06
56671;BME280;42545;50.054;8.306;2023-05-02T06:47:58;100446.91;;;12.24;80.93
56671;BME280;42545;50.054;8.306;2023-05-02T06:50:28;100454.88;;;12.25;79.46
56671;BME280;42545;50.054;8.306;2023-05-02T06:52:54;100459.28;;;12.26;78.42
56671;BME280;42545;50.054;8.306;2023-05-02T06:55:23;100461.94;;;12.25;77.71
56671;BME280;42545;50.054;8.306;2023-05-02T06:57:49;100466.28;;;12.21;77.39
56671;BME280;42545;50.054;8.306;2023-05-02T07:00:19;100476.84;;;12.20;77.41
56671;BME280;42545;50.054;8.306;2023-05-02T07:02:47;100468.88;;;12.18;77.43
56671;BME280;42545;50.054;8.306;2023-05-02T07:05:16;100475.03;;;12.17;78.07
56671;BME280;42545;50.054;8.306;2023-05-02T07:07:44;100482.88;;;12.11;76.67
56671;BME280;42545;50.054;8.306;2023-05-02T07:10:12;100488.25;;;12.16;77.05
56671;BME280;42545;50.054;8.306;2023-05-02T07:12:39;100488.25;;;12.17;77.17
56671;BME280;42545;50.054;8.306;2023-05-02T07:15:06;100491.91;;;12.24;77.06
56671;BME280;42545;50.054;8.306;2023-05-02T07:17:33;100491.03;;;12.26;76.49
56671;BME280;42545;50.054;8.306;2023-05-02T07:20:00;100484.84;;;12.24;76.41
56671;BME280;42545;50.054;8.306;2023-05-02T07:22:29;100500.03;;;12.36;76.52
56671;BME280;42545;50.054;8.306;2023-05-02T07:24:57;100496.47;;;12.36;75.91
56671;BME280;42545;50.054;8.306;2023-05-02T07:27:25;100502.72;;;12.39;76.13
56671;BME280;42545;50.054;8.306;2023-05-02T07:29:52;100492.22;;;12.44;76.65
56671;BME280;42545;50.054;8.306;2023-05-02T07:32:19;100501.97;;;12.48;76.36
56671;BME280;42545;50.054;8.306;2023-05-02T07:34:49;100508.19;;;12.50;76.18
56671;BME280;42545;50.054;8.306;2023-05-02T07:37:18;100507.34;;;12.51;76.04
56671;BME280;42545;50.054;8.306;2023-05-02T07:39:46;100507.31;;;12.49;75.85
56671;BME280;42545;50.054;8.306;2023-05-02T07:42:13;100511.75;;;12.50;75.32
56671;BME280;42545;50.054;8.306;2023-05-02T07:44:39;100509.13;;;12.54;76.14
56671;BME280;42545;50.054;8.306;2023-05-02T07:47:07;100518.84;;;12.55;75.52
56671;BME280;42545;50.054;8.306;2023-05-02T07:49:34;100520.59;;;12.53;75.69
56671;BME280;42545;50.054;8.306;2023-05-02T07:52:03;100523.16;;;12.48;75.14
56671;BME280;42545;50.054;8.306;2023-05-02T07:54:29;100527.47;;;12.41;75.15
56671;BME280;42545;50.054;8.306;2023-05-02T07:56:58;100530.91;;;12.37;75.56
56671;BME280;42545;50.054;8.306;2023-05-02T07:59:29;100527.28;;;12.30;75.90
56671;BME280;42545;50.054;8.306;2023-05-02T08:01:57;100535.22;;;12.30;75.84
56671;BME280;42545;50.054;8.306;2023-05-02T08:04:23;100537.81;;;12.27;76.21
56671;BME280;42545;50.054;8.306;2023-05-02T08:06:50;100537.75;;;12.24;76.21
56671;BME280;42545;50.054;8.306;2023-05-02T08:09:17;100539.56;;;12.25;76.38
56671;BME280;42545;50.054;8.306;2023-05-02T08:11:44;100550.00;;;12.19;76.16
56671;BME280;42545;50.054;8.306;2023-05-02T08:14:13;100539.38;;;12.15;76.09
56671;BME280;42545;50.054;8.306;2023-05-02T08:16:40;100551.69;;;12.13;76.33
56671;BME280;42545;50.054;8.306;2023-05-02T08:19:10;100557.84;;;12.13;76.79
56671;BME280;42545;50.054;8.306;2023-05-02T08:21:41;100550.72;;;12.09;76.85
56671;BME280;42545;50.054;8.306;2023-05-02T08:24:08;100562.22;;;12.11;77.07
56671;BME280;42545;50.054;8.306;2023-05-02T08:26:35;100563.13;;;12.13;77.04
56671;BME280;42545;50.054;8.306;2023-05-02T08:29:01;100557.84;;;12.13;76.69
56671;BME280;42545;50.054;8.306;2023-05-02T08:31:30;100569.41;;;12.18;76.69
56671;BME280;42545;50.054;8.306;2023-05-02T08:33:56;100566.84;;;12.24;77.08
56671;BME280;42545;50.054;8.306;2023-05-02T08:36:23;100569.69;;;12.35;76.91
56671;BME280;42545;50.054;8.306;2023-05-02T08:38:52;100569.75;;;12.38;76.70
56671;BME280;42545;50.054;8.306;2023-05-02T08:41:20;100571.56;;;12.41;76.27
56671;BME280;42545;50.054;8.306;2023-05-02T08:43:48;100582.13;;;12.41;76.41
56671;BME280;42545;50.054;8.306;2023-05-02T08:46:16;100578.63;;;12.40;75.91
56671;BME280;42545;50.054;8.306;2023-05-02T08:48:45;100578.66;;;12.42;76.52
56671;BME280;42545;50.054;8.306;2023-05-02T08:51:14;100585.84;;;12.52;76.79
56671;BME280;42545;50.054;8.306;2023-05-02T08:53:44;100586.97;;;12.66;76.38
56671;BME280;42545;50.054;8.306;2023-05-02T08:56:11;100583.69;;;12.80;75.58
56671;BME280;42545;50.054;8.306;2023-05-02T08:58:39;100584.00;;;13.00;75.05
56671;BME280;42545;50.054;8.306;2023-05-02T09:01:09;100592.16;;;13.15;75.25
56671;BME280;42545;50.054;8.306;2023-05-02T09:03:39;100586.81;;;13.11;73.19
56671;BME280;42545;50.054;8.306;2023-05-02T09:06:09;100599.28;;;13.19;73.01
56671;BME280;42545;50.054;8.306;2023-05-02T09:08:39;100609.84;;;13.18;73.17
56671;BME280;42545;50.054;8.306;2023-05-02T09:11:08;100600.06;;;13.14;72.08
56671;BME280;42545;50.054;8.306;2023-05-02T09:13:36;100604.44;;;13.10;72.46
56671;BME280;42545;50.054;8.306;2023-05-02T09:16:05;100610.59;;;13.07;72.13
56671;BME280;42545;50.054;8.306;2023-05-02T09:18:35;100603.47;;;13.03;72.14
56671;BME280;42545;50.054;8.306;2023-05-02T09:21:04;100608.78;;;13.06;71.68
56671;BME280;42545;50.054;8.306;2023-05-02T09:23:36;100614.09;;;13.06;71.03
56671;BME280;42545;50.054;8.306;2023-05-02T09:26:10;100615.03;;;13.10;70.16
56671;BME280;42545;50.054;8.306;2023-05-02T09:28:38;100614.19;;;13.11;69.88
56671;BME280;42545;50.054;8.306;2023-05-02T09:31:07;100619.56;;;13.17;70.64
56671;BME280;42545;50.054;8.306;2023-05-02T09:33:35;100612.56;;;13.22;70.22
56671;BME280;42545;50.054;8.306;2023-05-02T09:36:02;100619.66;;;13.25;68.66
56671;BME280;42545;50.054;8.306;2023-05-02T09:38:31;100623.19;;;13.24;68.65
56671;BME280;42545;50.054;8.306;2023-05-02T09:40:59;100623.25;;;13.28;69.03
56671;BME280;42545;50.054;8.306;2023-05-02T09:43:27;100624.22;;;13.32;69.72
56671;BME280;42545;50.054;8.306;2023-05-02T09:45:59;100631.34;;;13.35;69.60
56671;BME280;42545;50.054;8.306;2023-05-02T09:48:30;100623.22;;;13.25;67.86
56671;BME280;42545;50.054;8.306;2023-05-02T09:50:58;100633.81;;;13.25;68.26
56671;BME280;42545;50.054;8.306;2023-05-02T09:53:27;100632.06;;;13.26;69.77
56671;BME280;42545;50.054;8.306;2023-05-02T09:56:02;100636.53;;;13.30;69.49
56671;BME280;42545;50.054;8.306;2023-05-02T09:58:30;100639.31;;;13.36;68.83
56671;BME280;42545;50.054;8.306;2023-05-02T10:00:58;100634.09;;;13.42;69.31
56671;BME280;42545;50.054;8.306;2023-05-02T10:03:27;100634.25;;;13.53;69.49
56671;BME280;42545;50.054;8.306;2023-05-02T10:05:55;100629.13;;;13.65;70.00
56671;BME280;42545;50.054;8.306;2023-05-02T10:08:24;100634.50;;;13.73;68.23
56671;BME280;42545;50.054;8.306;2023-05-02T10:10:54;100628.38;;;13.79;67.76
56671;BME280;42545;50.054;8.306;2023-05-02T10:13:24;100621.41;;;13.87;67.70
56671;BME280;42545;50.054;8.306;2023-05-02T10:15:58;100628.72;;;14.08;67.80
56671;BME280;42545;50.054;8.306;2023-05-02T10:18:32;100630.75;;;14.29;65.53
56671;BME280;42545;50.054;8.306;2023-05-02T10:21:04;100621.06;;;14.36;64.34
56671;BME280;42545;50.054;8.306;2023-05-02T10:23:32;100620.19;;;14.40;63.35
56671;BME280;42545;50.054;8.306;2023-05-02T10:25:58;100625.53;;;14.41;62.88
56671;BME280;42545;50.054;8.306;2023-05-02T10:28:28;100627.28;;;14.39;63.70
56671;BME280;42545;50.054;8.306;2023-05-02T10:30:57;100627.31;;;14.42;62.95
56671;BME280;42545;50.054;8.306;2023-05-02T10:33:25;100625.53;;;14.38;59.94
56671;BME280;42545;50.054;8.306;2023-05-02T10:35:57;100620.28;;;14.46;61.27
56671;BME280;42545;50.054;8.306;2023-05-02T10:38:24;100618.66;;;14.57;61.12
56671;BME280;42545;50.054;8.306;2023-05-02T10:40:54;100609.94;;;14.74;61.21
56671;BME280;42545;50.054;8.306;2023-05-02T10:43:29;100612.69;;;14.85;59.57
56671;BME280;42545;50.054;8.306;2023-05-02T10:45:57;100606.50;;;14.90;60.09
56671;BME280;42545;50.054;8.306;2023-05-02T10:48:25;100603.97;;;15.03;60.46
56671;BME280;42545;50.054;8.306;2023-05-02T10:50:54;100606.69;;;15.16;60.15
56671;BME280;42545;50.054;8.306;2023-05-02T10:53:26;100599.66;;;15.25;60.21
56671;BME280;42545;50.054;8.306;2023-05-02T10:56:13;100597.03;;;15.26;59.59
56671;BME280;42545;50.054;8.306;2023-05-02T10:58:48;100597.00;;;15.29;60.21
56671;BME280;42545;50.054;8.306;2023-05-02T11:01:32;100585.59;;;15.43;58.98
56671;BME280;42545;50.054;8.306;2023-05-02T11:04:05;100571.38;;;15.42;60.01
56671;BME280;42545;50.054;8.306;2023-05-02T11:06:37;100570.53;;;15.51;60.43
56671;BME280;42545;50.054;8.306;2023-05-02T11:09:30;100576.91;;;15.78;60.14
56671;BME280;42545;50.054;8.306;2023-05-02T11:12:02;100574.22;;;15.81;58.91
56671;BME280;42545;50.054;8.306;2023-05-02T11:14:45;100575.16;;;15.90;58.09
56671;BME280;42545;50.054;8.306;2023-05-02T11:17:16;100566.28;;;15.85;56.96
56671;BME280;42545;50.054;8.306;2023-05-02T11:20:17;100578.69;;;15.91;56.99
56671;BME280;42545;50.054;8.306;2023-05-02T11:22:44;100567.22;;;16.03;56.94
56671;BME280;42545;50.054;8.306;2023-05-02T11:25:30;100564.53;;;16.13;56.12
56671;BME280;42545;50.054;8.306;2023-05-02T11:28:00;100563.69;;;16.18;55.90
56671;BME280;42545;50.054;8.306;2023-05-02T11:30:42;100560.13;;;16.09;55.12
56671;BME280;42545;50.054;8.306;2023-05-02T11:33:15;100556.53;;;15.95;54.74
56671;BME280;42545;50.054;8.306;2023-05-02T11:35:46;100568.06;;;15.86;55.57
56671;BME280;42545;50.054;8.306;2023-05-02T11:38:19;100565.34;;;15.79;55.99
56671;BME280;42545;50.054;8.306;2023-05-02T11:40:54;100571.50;;;15.68;55.18
56671;BME280;42545;50.054;8.306;2023-05-02T11:43:23;100590.97;;;15.60;55.47
56671;BME280;42545;50.054;8.306;2023-05-02T11:45:59;100582.06;;;15.48;56.57
56671;BME280;42545;50.054;8.306;2023-05-02T11:48:27;100590.84;;;15.32;57.57
56671;BME280;42545;50.054;8.306;2023-05-02T11:50:56;100588.09;;;15.19;58.60
56671;BME280;42545;50.054;8.306;2023-05-02T11:53:27;100587.13;;;15.05;59.07
56671;BME280;42545;50.054;8.306;2023-05-02T11:55:57;100590.56;;;14.89;59.22
56671;BME280;42545;50.054;8.306;2023-05-02T11:58:27;100582.50;;;14.76;59.19
56671;BME280;42545;50.054;8.306;2023-05-02T12:01:11;100593.09;;;14.72;59.68
56671;BME280;42545;50.054;8.306;2023-05-02T12:03:38;100591.31;;;14.68;59.40
56671;BME280;42545;50.054;8.306;2023-05-02T12:06:09;100586.81;;;14.64;58.28
56671;BME280;42545;50.054;8.306;2023-05-02T12:08:39;100582.53;;;14.81;57.43
56671;BME280;42545;50.054;8.306;2023-05-02T12:11:06;100585.34;;;15.01;56.00
56671;BME280;42545;50.054;8.306;2023-05-02T12:13:33;100599.69;;;15.31;53.65
56671;BME280;42545;50.054;8.306;2023-05-02T12:16:02;100593.56;;;15.44;51.17
56671;BME280;42545;50.054;8.306;2023-05-02T12:18:31;100582.97;;;15.55;51.77
56671;BME280;42545;50.054;8.306;2023-05-02T12:20:58;100585.72;;;15.70;52.00
56671;BME280;42545;50.054;8.306;2023-05-02T12:23:25;100576.91;;;15.79;51.78
56671;BME280;42545;50.054;8.306;2023-05-02T12:25:52;100595.56;;;15.96;51.34
56671;BME280;42545;50.054;8.306;2023-05-02T12:28:20;100596.50;;;16.01;51.86
56671;BME280;42545;50.054;8.306;2023-05-02T12:30:49;100608.00;;;15.99;52.10
56671;BME280;42545;50.054;8.306;2023-05-02T12:33:17;100602.69;;;15.95;53.05
56671;BME280;42545;50.054;8.306;2023-05-02T12:35:44;100601.78;;;15.90;53.04
56671;BME280;42545;50.054;8.306;2023-05-02T12:38:14;100607.09;;;15.89;53.79
56671;BME280;42545;50.054;8.306;2023-05-02T12:40:48;100614.16;;;15.82;54.31
56671;BME280;42545;50.054;8.306;2023-05-02T12:43:18;100616.78;;;15.74;54.99
56671;BME280;42545;50.054;8.306;2023-05-02T12:45:46;100611.41;;;15.68;55.15
56671;BME280;42545;50.054;8.306;2023-05-02T12:48:23;100615.84;;;15.71;56.30
56671;BME280;42545;50.054;8.306;2023-05-02T12:50:51;100617.63;;;15.70;56.93
56671;BME280;42545;50.054;8.306;2023-05-02T12:53:37;100617.66;;;15.75;58.49
56671;BME280;42545;50.054;8.306;2023-05-02T12:56:07;100625.69;;;15.84;58.82
56671;BME280;42545;50.054;8.306;2023-05-02T12:58:42;100622.16;;;15.84;58.38
56671;BME280;42545;50.054;8.306;2023-05-02T13:01:13;100621.25;;;15.80;58.18